sensor_id;sensor_type;location;lat;lon;timestamp;temperature;humidity
6142;DHT22;71289;51.552;6.210;2024-01-16T00:00:31;1.40;99.90
6142;DHT22;71289;51.552;6.210;2024-01-16T00:02:57;1.40;99.90
6142;DHT22;71289;51.552;6.210;2024-01-16T00:05:23;1.30;99.90
6142;DHT22;71289;51.552;6.210;2024-01-16T00:07:48;1.30;99.90
6142;DHT22;71289;51.552;6.210;2024-01-16T00:10:14;1.40;99.90
6142;DHT22;71289;51.552;6.210;2024-01-16T00:12:41;1.40;99.90
6142;DHT22;71289;51.552;6.210;2024-01-16T00:15:07;1.40;99.90
6142;DHT22;71289;51.552;6.210;2024-01-16T00:17:34;1.40;99.90
6142;DHT22;71289;51.552;6.210;2024-01-16T00:19:59;1.50;99.90
6142;DHT22;71289;51.552;6.210;2024-01-16T00:22:27;1.40;99.90
6142;DHT22;71289;51.552;6.210;2024-01-16T00:24:52;1.50;99.90
6142;DHT22;71289;51.552;6.210;2024-01-16T00:27:18;1.50;99.90
6142;DHT22;71289;51.552;6.210;2024-01-16T00:29:44;1.40;99.90
6142;DHT22;71289;51.552;6.210;2024-01-16T00:32:09;1.30;99.90
6142;DHT22;71289;51.552;6.210;2024-01-16T00:34:35;1.30;99.90
6142;DHT22;71289;51.552;6.210;2024-01-16T00:37:00;1.30;99.90
6142;DHT22;71289;51.552;6.210;2024-01-16T00:39:26;1.30;99.90
6142;DHT22;71289;51.552;6.210;2024-01-16T00:41:51;1.30;99.90
6142;DHT22;71289;51.552;6.210;2024-01-16T00:44:17;1.30;99.90
6142;DHT22;71289;51.552;6.210;2024-01-16T00:46:42;1.30;99.90
6142;DHT22;71289;51.552;6.210;2024-01-16T00:49:08;1.30;99.90
6142;DHT22;71289;51.552;6.210;2024-01-16T00:51:33;1.30;99.90
6142;DHT22;71289;51.552;6.210;2024-01-16T00:53:59;1.20;99.90
6142;DHT22;71289;51.552;6.210;2024-01-16T00:56:24;1.20;99.90
6142;DHT22;71289;51.552;6.210;2024-01-16T00:58:53;1.30;99.90
6142;DHT22;71289;51.552;6.210;2024-01-16T01:01:19;1.20;99.90
6142;DHT22;71289;51.552;6.210;2024-01-16T01:03:45;1.20;99.90
6142;DHT22;71289;51.552;6.210;2024-01-16T01:06:11;1.30;99.90
6142;DHT22;71289;51.552;6.210;2024-01-16T01:08:36;1.30;99.90
6142;DHT22;71289;51.552;6.210;2024-01-16T01:11:02;1.30;99.90
6142;DHT22;71289;51.552;6.210;2024-01-16T01:13:28;1.30;99.90
6142;DHT22;71289;51.552;6.210;2024-01-16T01:15:54;1.30;99.90
6142;DHT22;71289;51.552;6.210;2024-01-16T01:18:19;1.40;99.90
6142;DHT22;71289;51.552;6.210;2024-01-16T01:20:45;1.40;99.90
6142;DHT22;71289;51.552;6.210;2024-01-16T01:23:11;1.40;99.90
6142;DHT22;71289;51.552;6.210;2024-01-16T01:25:36;1.40;99.90
6142;DHT22;71289;51.552;6.210;2024-01-16T01:28:02;1.40;99.90
6142;DHT22;71289;51.552;6.210;2024-01-16T01:30:27;1.40;99.90
6142;DHT22;71289;51.552;6.210;2024-01-16T01:32:53;1.40;99.90
6142;DHT22;71289;51.552;6.210;2024-01-16T01:35:18;1.40;99.90
6142;DHT22;71289;51.552;6.210;2024-01-16T01:37:47;1.40;99.90
6142;DHT22;71289;51.552;6.210;2024-01-16T01:40:12;1.50;99.90
6142;DHT22;71289;51.552;6.210;2024-01-16T01:42:41;1.50;99.90
6142;DHT22;71289;51.552;6.210;2024-01-16T01:45:08;1.50;99.90
6142;DHT22;71289;51.552;6.210;2024-01-16T01:47:34;1.50;99.90
6142;DHT22;71289;51.552;6.210;2024-01-16T01:50:01;1.70;99.90
6142;DHT22;71289;51.552;6.210;2024-01-16T01:52:27;1.50;99.90
6142;DHT22;71289;51.552;6.210;2024-01-16T01:54:52;1.50;99.90
6142;DHT22;71289;51.552;6.210;2024-01-16T01:57:18;1.50;99.90
6142;DHT22;71289;51.552;6.210;2024-01-16T01:59:43;1.50;99.90
6142;DHT22;71289;51.552;6.210;2024-01-16T02:02:10;1.70;99.90
6142;DHT22;71289;51.552;6.210;2024-01-16T02:04:36;1.50;99.90
6142;DHT22;71289;51.552;6.210;2024-01-16T02:07:04;1.50;99.90
6142;DHT22;71289;51.552;6.210;2024-01-16T02:09:30;1.50;99.90
6142;DHT22;71289;51.552;6.210;2024-01-16T02:11:56;1.50;99.90
6142;DHT22;71289;51.552;6.210;2024-01-16T02:14:21;1.50;99.90
6142;DHT22;71289;51.552;6.210;2024-01-16T02:16:47;1.50;99.90
6142;DHT22;71289;51.552;6.210;2024-01-16T02:19:12;1.50;99.90
6142;DHT22;71289;51.552;6.210;2024-01-16T02:21:48;1.50;99.90
6142;DHT22;71289;51.552;6.210;2024-01-16T02:24:15;1.40;99.90
6142;DHT22;71289;51.552;6.210;2024-01-16T02:26:41;1.40;99.90
6142;DHT22;71289;51.552;6.210;2024-01-16T02:29:06;1.40;99.90
6142;DHT22;71289;51.552;6.210;2024-01-16T02:31:33;1.40;99.90
6142;DHT22;71289;51.552;6.210;2024-01-16T02:33:59;1.40;99.90
6142;DHT22;71289;51.552;6.210;2024-01-16T02:36:25;1.40;99.90
6142;DHT22;71289;51.552;6.210;2024-01-16T02:38:51;1.40;99.90
6142;DHT22;71289;51.552;6.210;2024-01-16T02:41:17;1.40;99.90
6142;DHT22;71289;51.552;6.210;2024-01-16T02:43:43;1.40;99.90
6142;DHT22;71289;51.552;6.210;2024-01-16T02:46:09;1.50;99.90
6142;DHT22;71289;51.552;6.210;2024-01-16T02:48:35;1.50;99.90
6142;DHT22;71289;51.552;6.210;2024-01-16T02:51:01;1.50;99.90
6142;DHT22;71289;51.552;6.210;2024-01-16T02:53:27;1.40;99.90
6142;DHT22;71289;51.552;6.210;2024-01-16T02:55:54;1.40;99.90
6142;DHT22;71289;51.552;6.210;2024-01-16T02:58:20;1.40;99.90
6142;DHT22;71289;51.552;6.210;2024-01-16T03:00:45;1.40;99.90
6142;DHT22;71289;51.552;6.210;2024-01-16T03:03:12;1.40;99.90
6142;DHT22;71289;51.552;6.210;2024-01-16T03:05:37;1.50;99.90
6142;DHT22;71289;51.552;6.210;2024-01-16T03:08:03;1.50;99.90
6142;DHT22;71289;51.552;6.210;2024-01-16T03:10:29;1.50;99.90
6142;DHT22;71289;51.552;6.210;2024-01-16T03:12:54;1.50;99.90
6142;DHT22;71289;51.552;6.210;2024-01-16T03:15:20;1.60;99.90
6142;DHT22;71289;51.552;6.210;2024-01-16T03:17:47;1.50;99.90
6142;DHT22;71289;51.552;6.210;2024-01-16T03:20:13;1.50;99.90
6142;DHT22;71289;51.552;6.210;2024-01-16T03:22:38;1.40;99.90
6142;DHT22;71289;51.552;6.210;2024-01-16T03:25:04;1.40;99.90
6142;DHT22;71289;51.552;6.210;2024-01-16T03:27:30;1.40;99.90
6142;DHT22;71289;51.552;6.210;2024-01-16T03:29:56;1.50;99.90
6142;DHT22;71289;51.552;6.210;2024-01-16T03:32:21;1.50;99.90
6142;DHT22;71289;51.552;6.210;2024-01-16T03:34:47;1.50;99.90
6142;DHT22;71289;51.552;6.210;2024-01-16T03:37:12;1.50;99.90
6142;DHT22;71289;51.552;6.210;2024-01-16T03:39:38;1.50;99.90
6142;DHT22;71289;51.552;6.210;2024-01-16T03:42:03;1.50;99.90
6142;DHT22;71289;51.552;6.210;2024-01-16T03:44:29;1.50;99.90
6142;DHT22;71289;51.552;6.210;2024-01-16T03:46:54;1.60;99.90
6142;DHT22;71289;51.552;6.210;2024-01-16T03:49:20;1.60;99.90
6142;DHT22;71289;51.552;6.210;2024-01-16T03:51:46;1.60;99.90
6142;DHT22;71289;51.552;6.210;2024-01-16T03:54:12;1.60;99.90
6142;DHT22;71289;51.552;6.210;2024-01-16T03:56:41;1.60;99.90
6142;DHT22;71289;51.552;6.210;2024-01-16T03:59:07;1.60;99.90
6142;DHT22;71289;51.552;6.210;2024-01-16T04:01:33;1.60;99.90
6142;DHT22;71289;51.552;6.210;2024-01-16T04:04:02;1.60;99.90
6142;DHT22;71289;51.552;6.210;2024-01-16T04:06:27;1.60;99.90
6142;DHT22;71289;51.552;6.210;2024-01-16T04:08:54;1.60;99.90
6142;DHT22;71289;51.552;6.210;2024-01-16T04:11:20;1.60;99.90
6142;DHT22;71289;51.552;6.210;2024-01-16T04:13:45;1.60;99.90
6142;DHT22;71289;51.552;6.210;2024-01-16T04:16:12;1.60;99.90
6142;DHT22;71289;51.552;6.210;2024-01-16T04:18:39;1.60;99.90
6142;DHT22;71289;51.552;6.210;2024-01-16T04:21:05;1.60;99.90
6142;DHT22;71289;51.552;6.210;2024-01-16T04:23:31;1.60;99.90
6142;DHT22;71289;51.552;6.210;2024-01-16T04:25:57;1.60;99.90
6142;DHT22;71289;51.552;6.210;2024-01-16T04:28:23;1.60;99.90
6142;DHT22;71289;51.552;6.210;2024-01-16T04:30:49;1.60;99.90
6142;DHT22;71289;51.552;6.210;2024-01-16T04:33:14;1.60;99.90
6142;DHT22;71289;51.552;6.210;2024-01-16T04:35:40;1.60;99.90
6142;DHT22;71289;51.552;6.210;2024-01-16T04:38:05;1.50;99.90
6142;DHT22;71289;51.552;6.210;2024-01-16T04:40:31;1.50;99.90
6142;DHT22;71289;51.552;6.210;2024-01-16T04:42:56;1.40;99.90
6142;DHT22;71289;51.552;6.210;2024-01-16T04:45:22;1.40;99.90
6142;DHT22;71289;51.552;6.210;2024-01-16T04:47:47;1.40;99.90
6142;DHT22;71289;51.552;6.210;2024-01-16T04:50:13;1.30;99.90
6142;DHT22;71289;51.552;6.210;2024-01-16T04:52:38;1.30;99.90
6142;DHT22;71289;51.552;6.210;2024-01-16T04:55:04;1.30;99.90
6142;DHT22;71289;51.552;6.210;2024-01-16T04:57:30;1.30;99.90
6142;DHT22;71289;51.552;6.210;2024-01-16T04:59:55;1.20;99.90
6142;DHT22;71289;51.552;6.210;2024-01-16T05:02:21;1.20;99.90
6142;DHT22;71289;51.552;6.210;2024-01-16T05:04:46;1.20;99.90
6142;DHT22;71289;51.552;6.210;2024-01-16T05:07:15;1.30;99.90
6142;DHT22;71289;51.552;6.210;2024-01-16T05:09:40;1.30;99.90
6142;DHT22;71289;51.552;6.210;2024-01-16T05:12:06;1.30;99.90
6142;DHT22;71289;51.552;6.210;2024-01-16T05:14:31;1.20;99.90
6142;DHT22;71289;51.552;6.210;2024-01-16T05:16:57;1.20;99.90
6142;DHT22;71289;51.552;6.210;2024-01-16T05:19:22;1.20;99.90
6142;DHT22;71289;51.552;6.210;2024-01-16T05:21:48;1.40;99.90
6142;DHT22;71289;51.552;6.210;2024-01-16T05:24:13;1.20;99.90
6142;DHT22;71289;51.552;6.210;2024-01-16T05:26:39;1.10;99.90
6142;DHT22;71289;51.552;6.210;2024-01-16T05:29:04;1.20;99.90
6142;DHT22;71289;51.552;6.210;2024-01-16T05:31:30;1.20;99.90
6142;DHT22;71289;51.552;6.210;2024-01-16T05:33:55;1.10;99.90
6142;DHT22;71289;51.552;6.210;2024-01-16T05:36:21;1.10;99.90
6142;DHT22;71289;51.552;6.210;2024-01-16T05:38:47;1.10;99.90
6142;DHT22;71289;51.552;6.210;2024-01-16T05:41:13;1.10;99.90
6142;DHT22;71289;51.552;6.210;2024-01-16T05:43:39;1.10;99.90
6142;DHT22;71289;51.552;6.210;2024-01-16T05:46:04;1.10;99.90
6142;DHT22;71289;51.552;6.210;2024-01-16T05:48:30;1.10;99.90
6142;DHT22;71289;51.552;6.210;2024-01-16T05:50:56;1.10;99.90
6142;DHT22;71289;51.552;6.210;2024-01-16T05:53:21;1.10;99.90
6142;DHT22;71289;51.552;6.210;2024-01-16T05:55:47;1.10;99.90
6142;DHT22;71289;51.552;6.210;2024-01-16T05:58:12;1.10;99.90
6142;DHT22;71289;51.552;6.210;2024-01-16T06:00:38;1.10;99.90
6142;DHT22;71289;51.552;6.210;2024-01-16T06:03:04;1.10;99.90
6142;DHT22;71289;51.552;6.210;2024-01-16T06:05:30;1.10;99.90
6142;DHT22;71289;51.552;6.210;2024-01-16T06:07:56;1.10;99.90
6142;DHT22;71289;51.552;6.210;2024-01-16T06:10:21;1.00;99.90
6142;DHT22;71289;51.552;6.210;2024-01-16T06:12:47;1.00;99.90
6142;DHT22;71289;51.552;6.210;2024-01-16T06:15:13;1.00;99.90
6142;DHT22;71289;51.552;6.210;2024-01-16T06:17:38;1.00;99.90
6142;DHT22;71289;51.552;6.210;2024-01-16T06:20:04;1.00;99.90
6142;DHT22;71289;51.552;6.210;2024-01-16T06:22:31;1.00;99.90
6142;DHT22;71289;51.552;6.210;2024-01-16T06:24:57;1.00;99.90
6142;DHT22;71289;51.552;6.210;2024-01-16T06:27:22;1.00;99.90
6142;DHT22;71289;51.552;6.210;2024-01-16T06:29:48;0.90;99.90
6142;DHT22;71289;51.552;6.210;2024-01-16T06:32:14;0.90;99.90
6142;DHT22;71289;51.552;6.210;2024-01-16T06:34:40;0.90;99.90
6142;DHT22;71289;51.552;6.210;2024-01-16T06:37:05;0.90;99.90
6142;DHT22;71289;51.552;6.210;2024-01-16T06:39:31;0.90;99.90
6142;DHT22;71289;51.552;6.210;2024-01-16T06:41:56;0.80;99.90
6142;DHT22;71289;51.552;6.210;2024-01-16T06:44:22;0.80;99.90
6142;DHT22;71289;51.552;6.210;2024-01-16T06:46:47;0.80;99.90
6142;DHT22;71289;51.552;6.210;2024-01-16T06:49:13;0.80;99.90
6142;DHT22;71289;51.552;6.210;2024-01-16T06:51:38;0.70;99.90
6142;DHT22;71289;51.552;6.210;2024-01-16T06:54:04;0.70;99.90
6142;DHT22;71289;51.552;6.210;2024-01-16T06:56:30;0.60;99.90
6142;DHT22;71289;51.552;6.210;2024-01-16T06:58:55;0.60;99.90
6142;DHT22;71289;51.552;6.210;2024-01-16T07:01:21;0.60;99.90
6142;DHT22;71289;51.552;6.210;2024-01-16T07:03:47;0.60;99.90
6142;DHT22;71289;51.552;6.210;2024-01-16T07:06:12;0.60;99.90
6142;DHT22;71289;51.552;6.210;2024-01-16T07:08:38;0.60;99.90
6142;DHT22;71289;51.552;6.210;2024-01-16T07:11:03;0.60;99.90
6142;DHT22;71289;51.552;6.210;2024-01-16T07:13:33;0.60;99.90
6142;DHT22;71289;51.552;6.210;2024-01-16T07:15:59;0.50;99.90
6142;DHT22;71289;51.552;6.210;2024-01-16T07:18:26;0.50;99.90
6142;DHT22;71289;51.552;6.210;2024-01-16T07:20:52;0.90;99.90
6142;DHT22;71289;51.552;6.210;2024-01-16T07:23:17;0.50;99.90
6142;DHT22;71289;51.552;6.210;2024-01-16T07:25:43;0.50;99.90
6142;DHT22;71289;51.552;6.210;2024-01-16T07:28:08;0.40;99.90
6142;DHT22;71289;51.552;6.210;2024-01-16T07:30:34;0.40;99.90
6142;DHT22;71289;51.552;6.210;2024-01-16T07:33:00;0.40;99.90
6142;DHT22;71289;51.552;6.210;2024-01-16T07:35:25;0.30;99.90
6142;DHT22;71289;51.552;6.210;2024-01-16T07:37:51;0.30;99.90
6142;DHT22;71289;51.552;6.210;2024-01-16T07:40:17;0.30;99.90
6142;DHT22;71289;51.552;6.210;2024-01-16T07:42:42;0.30;99.90
6142;DHT22;71289;51.552;6.210;2024-01-16T07:45:08;0.30;99.90
6142;DHT22;71289;51.552;6.210;2024-01-16T07:47:34;0.20;99.90
6142;DHT22;71289;51.552;6.210;2024-01-16T07:50:00;0.40;99.90
6142;DHT22;71289;51.552;6.210;2024-01-16T07:52:27;0.30;99.90
6142;DHT22;71289;51.552;6.210;2024-01-16T07:54:53;0.30;99.90
6142;DHT22;71289;51.552;6.210;2024-01-16T07:57:19;0.30;99.90
6142;DHT22;71289;51.552;6.210;2024-01-16T07:59:44;0.30;99.90
6142;DHT22;71289;51.552;6.210;2024-01-16T08:02:10;0.30;99.90
6142;DHT22;71289;51.552;6.210;2024-01-16T08:04:36;0.30;99.90
6142;DHT22;71289;51.552;6.210;2024-01-16T08:07:01;0.30;99.90
6142;DHT22;71289;51.552;6.210;2024-01-16T08:09:27;0.30;99.90
6142;DHT22;71289;51.552;6.210;2024-01-16T08:11:53;0.30;99.90
6142;DHT22;71289;51.552;6.210;2024-01-16T08:14:18;0.20;99.90
6142;DHT22;71289;51.552;6.210;2024-01-16T08:16:44;0.30;99.90
6142;DHT22;71289;51.552;6.210;2024-01-16T08:19:10;0.30;99.90
6142;DHT22;71289;51.552;6.210;2024-01-16T08:21:35;0.30;99.90
6142;DHT22;71289;51.552;6.210;2024-01-16T08:24:01;0.30;99.90
6142;DHT22;71289;51.552;6.210;2024-01-16T08:26:27;0.20;99.90
6142;DHT22;71289;51.552;6.210;2024-01-16T08:28:54;0.20;99.90
6142;DHT22;71289;51.552;6.210;2024-01-16T08:31:19;0.20;99.90
6142;DHT22;71289;51.552;6.210;2024-01-16T08:33:45;0.20;99.90
6142;DHT22;71289;51.552;6.210;2024-01-16T08:36:11;0.20;99.90
6142;DHT22;71289;51.552;6.210;2024-01-16T08:38:37;0.30;99.90
6142;DHT22;71289;51.552;6.210;2024-01-16T08:41:02;0.30;99.90
6142;DHT22;71289;51.552;6.210;2024-01-16T08:43:34;0.20;99.90
6142;DHT22;71289;51.552;6.210;2024-01-16T08:46:00;0.30;99.90
6142;DHT22;71289;51.552;6.210;2024-01-16T08:48:25;0.20;99.90
6142;DHT22;71289;51.552;6.210;2024-01-16T08:50:52;0.20;99.90
6142;DHT22;71289;51.552;6.210;2024-01-16T08:53:19;0.20;99.90
6142;DHT22;71289;51.552;6.210;2024-01-16T08:55:45;0.30;99.90
6142;DHT22;71289;51.552;6.210;2024-01-16T08:58:10;0.30;99.90
6142;DHT22;71289;51.552;6.210;2024-01-16T09:00:36;0.30;99.90
6142;DHT22;71289;51.552;6.210;2024-01-16T09:03:03;0.30;99.90
6142;DHT22;71289;51.552;6.210;2024-01-16T09:05:29;0.30;99.90
6142;DHT22;71289;51.552;6.210;2024-01-16T09:07:55;0.30;99.90
6142;DHT22;71289;51.552;6.210;2024-01-16T09:10:20;0.40;99.90
6142;DHT22;71289;51.552;6.210;2024-01-16T09:12:46;0.30;99.90
6142;DHT22;71289;51.552;6.210;2024-01-16T09:15:11;0.40;99.90
6142;DHT22;71289;51.552;6.210;2024-01-16T09:17:37;0.40;99.90
6142;DHT22;71289;51.552;6.210;2024-01-16T09:20:05;0.40;99.90
6142;DHT22;71289;51.552;6.210;2024-01-16T09:22:32;0.40;99.90
6142;DHT22;71289;51.552;6.210;2024-01-16T09:24:57;0.30;99.90
6142;DHT22;71289;51.552;6.210;2024-01-16T09:27:23;0.30;99.90
6142;DHT22;71289;51.552;6.210;2024-01-16T09:29:48;0.40;99.90
6142;DHT22;71289;51.552;6.210;2024-01-16T09:32:14;0.40;99.90
6142;DHT22;71289;51.552;6.210;2024-01-16T09:34:40;0.40;99.90
6142;DHT22;71289;51.552;6.210;2024-01-16T09:37:05;0.40;99.90
6142;DHT22;71289;51.552;6.210;2024-01-16T09:39:31;0.40;99.90
6142;DHT22;71289;51.552;6.210;2024-01-16T09:41:59;0.40;99.90
6142;DHT22;71289;51.552;6.210;2024-01-16T09:44:27;0.40;99.90
6142;DHT22;71289;51.552;6.210;2024-01-16T09:46:53;0.40;99.90
6142;DHT22;71289;51.552;6.210;2024-01-16T09:49:20;0.40;99.90
6142;DHT22;71289;51.552;6.210;2024-01-16T09:51:46;0.50;99.90
6142;DHT22;71289;51.552;6.210;2024-01-16T09:54:11;0.50;99.90
6142;DHT22;71289;51.552;6.210;2024-01-16T09:56:44;0.50;99.90
6142;DHT22;71289;51.552;6.210;2024-01-16T09:59:13;0.50;99.90
6142;DHT22;71289;51.552;6.210;2024-01-16T10:01:40;0.60;99.90
6142;DHT22;71289;51.552;6.210;2024-01-16T10:04:06;0.50;99.90
6142;DHT22;71289;51.552;6.210;2024-01-16T10:06:33;0.80;99.90
6142;DHT22;71289;51.552;6.210;2024-01-16T10:08:59;0.70;99.90
6142;DHT22;71289;51.552;6.210;2024-01-16T10:11:25;0.60;99.90
6142;DHT22;71289;51.552;6.210;2024-01-16T10:13:51;0.60;99.90
6142;DHT22;71289;51.552;6.210;2024-01-16T10:16:16;0.60;99.90
6142;DHT22;71289;51.552;6.210;2024-01-16T10:18:42;0.50;99.90
6142;DHT22;71289;51.552;6.210;2024-01-16T10:21:21;0.60;99.90
6142;DHT22;71289;51.552;6.210;2024-01-16T10:23:47;0.60;99.90
6142;DHT22;71289;51.552;6.210;2024-01-16T10:26:13;0.60;99.90
6142;DHT22;71289;51.552;6.210;2024-01-16T10:28:43;0.60;99.90
6142;DHT22;71289;51.552;6.210;2024-01-16T10:31:10;0.60;99.90
6142;DHT22;71289;51.552;6.210;2024-01-16T10:33:36;0.70;99.90
6142;DHT22;71289;51.552;6.210;2024-01-16T10:36:12;0.70;99.90
6142;DHT22;71289;51.552;6.210;2024-01-16T10:38:39;0.70;99.90
6142;DHT22;71289;51.552;6.210;2024-01-16T10:43:31;0.80;99.90
6142;DHT22;71289;51.552;6.210;2024-01-16T10:46:07;0.90;99.90
6142;DHT22;71289;51.552;6.210;2024-01-16T10:48:33;0.90;99.90
6142;DHT22;71289;51.552;6.210;2024-01-16T10:51:00;1.00;99.90
6142;DHT22;71289;51.552;6.210;2024-01-16T10:53:29;1.00;99.90
6142;DHT22;71289;51.552;6.210;2024-01-16T10:55:59;1.10;99.90
6142;DHT22;71289;51.552;6.210;2024-01-16T10:58:25;1.20;99.90
6142;DHT22;71289;51.552;6.210;2024-01-16T11:00:57;1.20;99.90
6142;DHT22;71289;51.552;6.210;2024-01-16T11:03:35;1.20;99.90
6142;DHT22;71289;51.552;6.210;2024-01-16T11:06:06;1.20;99.90
6142;DHT22;71289;51.552;6.210;2024-01-16T11:08:35;1.30;99.90
6142;DHT22;71289;51.552;6.210;2024-01-16T11:11:01;1.30;99.90
6142;DHT22;71289;51.552;6.210;2024-01-16T11:13:30;1.40;99.90
6142;DHT22;71289;51.552;6.210;2024-01-16T11:15:58;1.40;99.90
6142;DHT22;71289;51.552;6.210;2024-01-16T11:18:24;1.50;99.90
6142;DHT22;71289;51.552;6.210;2024-01-16T11:20:52;1.50;99.90
6142;DHT22;71289;51.552;6.210;2024-01-16T11:23:19;1.50;99.90
6142;DHT22;71289;51.552;6.210;2024-01-16T11:25:45;1.60;99.90
6142;DHT22;71289;51.552;6.210;2024-01-16T11:28:14;1.60;99.90
6142;DHT22;71289;51.552;6.210;2024-01-16T11:30:41;1.70;99.90
6142;DHT22;71289;51.552;6.210;2024-01-16T11:35:56;1.80;99.90
6142;DHT22;71289;51.552;6.210;2024-01-16T11:38:23;1.80;99.90
6142;DHT22;71289;51.552;6.210;2024-01-16T11:40:49;1.90;99.90
6142;DHT22;71289;51.552;6.210;2024-01-16T11:45:59;2.00;99.90
6142;DHT22;71289;51.552;6.210;2024-01-16T11:48:25;2.10;99.90
6142;DHT22;71289;51.552;6.210;2024-01-16T11:50:52;2.20;99.90
6142;DHT22;71289;51.552;6.210;2024-01-16T11:53:33;2.30;99.90
6142;DHT22;71289;51.552;6.210;2024-01-16T11:59:07;2.50;99.90
6142;DHT22;71289;51.552;6.210;2024-01-16T12:01:35;2.70;99.90
6142;DHT22;71289;51.552;6.210;2024-01-16T12:04:07;2.80;99.90
6142;DHT22;71289;51.552;6.210;2024-01-16T12:06:36;2.80;99.90
6142;DHT22;71289;51.552;6.210;2024-01-16T12:09:15;2.70;99.90
6142;DHT22;71289;51.552;6.210;2024-01-16T12:11:41;2.60;99.90
6142;DHT22;71289;51.552;6.210;2024-01-16T12:14:09;2.60;99.90
6142;DHT22;71289;51.552;6.210;2024-01-16T12:16:34;2.60;99.90
6142;DHT22;71289;51.552;6.210;2024-01-16T12:19:09;2.50;99.90
6142;DHT22;71289;51.552;6.210;2024-01-16T12:21:39;2.50;99.90
6142;DHT22;71289;51.552;6.210;2024-01-16T12:24:06;2.60;99.90
6142;DHT22;71289;51.552;6.210;2024-01-16T12:26:32;2.70;99.90
6142;DHT22;71289;51.552;6.210;2024-01-16T12:28:57;2.90;99.90
6142;DHT22;71289;51.552;6.210;2024-01-16T12:31:23;3.10;99.90
6142;DHT22;71289;51.552;6.210;2024-01-16T12:33:50;3.30;99.90
6142;DHT22;71289;51.552;6.210;2024-01-16T12:36:16;3.50;99.90
6142;DHT22;71289;51.552;6.210;2024-01-16T12:38:41;3.80;99.90
6142;DHT22;71289;51.552;6.210;2024-01-16T12:41:09;4.10;99.90
6142;DHT22;71289;51.552;6.210;2024-01-16T12:43:35;4.30;99.90
6142;DHT22;71289;51.552;6.210;2024-01-16T12:46:02;4.60;99.90
6142;DHT22;71289;51.552;6.210;2024-01-16T12:48:28;4.70;99.90
6142;DHT22;71289;51.552;6.210;2024-01-16T12:51:01;4.90;99.90
6142;DHT22;71289;51.552;6.210;2024-01-16T12:53:28;5.10;99.90
6142;DHT22;71289;51.552;6.210;2024-01-16T12:56:00;5.20;99.90
6142;DHT22;71289;51.552;6.210;2024-01-16T12:58:32;5.10;99.90
6142;DHT22;71289;51.552;6.210;2024-01-16T13:03:47;4.80;99.90
6142;DHT22;71289;51.552;6.210;2024-01-16T13:06:18;4.70;99.90
6142;DHT22;71289;51.552;6.210;2024-01-16T13:08:50;4.70;99.90
6142;DHT22;71289;51.552;6.210;2024-01-16T13:11:17;4.80;99.90
6142;DHT22;71289;51.552;6.210;2024-01-16T13:13:46;4.90;99.90
6142;DHT22;71289;51.552;6.210;2024-01-16T13:16:17;4.80;99.90
6142;DHT22;71289;51.552;6.210;2024-01-16T13:18:42;4.60;99.90
6142;DHT22;71289;51.552;6.210;2024-01-16T13:21:08;4.60;99.90
6142;DHT22;71289;51.552;6.210;2024-01-16T13:23:34;4.60;99.90
6142;DHT22;71289;51.552;6.210;2024-01-16T13:26:00;4.70;99.90
6142;DHT22;71289;51.552;6.210;2024-01-16T13:28:29;4.80;99.90
6142;DHT22;71289;51.552;6.210;2024-01-16T13:30:55;4.90;99.90
6142;DHT22;71289;51.552;6.210;2024-01-16T13:33:23;4.90;99.90
6142;DHT22;71289;51.552;6.210;2024-01-16T13:35:52;4.80;99.90
6142;DHT22;71289;51.552;6.210;2024-01-16T13:38:18;4.70;99.90
6142;DHT22;71289;51.552;6.210;2024-01-16T13:40:44;4.60;99.90
6142;DHT22;71289;51.552;6.210;2024-01-16T13:43:10;4.60;99.90
6142;DHT22;71289;51.552;6.210;2024-01-16T13:45:37;4.60;99.90
6142;DHT22;71289;51.552;6.210;2024-01-16T13:48:04;4.60;99.90
6142;DHT22;71289;51.552;6.210;2024-01-16T13:50:31;4.50;99.90
6142;DHT22;71289;51.552;6.210;2024-01-16T13:52:56;4.50;99.90
6142;DHT22;71289;51.552;6.210;2024-01-16T13:55:22;4.50;99.90
6142;DHT22;71289;51.552;6.210;2024-01-16T13:57:47;4.50;99.90
6142;DHT22;71289;51.552;6.210;2024-01-16T14:00:14;4.40;99.90
6142;DHT22;71289;51.552;6.210;2024-01-16T14:02:44;4.20;99.90
6142;DHT22;71289;51.552;6.210;2024-01-16T14:05:14;3.90;99.90
6142;DHT22;71289;51.552;6.210;2024-01-16T14:07:47;3.70;99.90
6142;DHT22;71289;51.552;6.210;2024-01-16T14:10:14;3.60;99.90
6142;DHT22;71289;51.552;6.210;2024-01-16T14:12:40;3.50;99.90
6142;DHT22;71289;51.552;6.210;2024-01-16T14:15:08;3.50;99.90
6142;DHT22;71289;51.552;6.210;2024-01-16T14:17:42;3.50;99.90
6142;DHT22;71289;51.552;6.210;2024-01-16T14:20:09;3.40;99.90
6142;DHT22;71289;51.552;6.210;2024-01-16T14:22:36;3.30;99.90
6142;DHT22;71289;51.552;6.210;2024-01-16T14:25:08;3.20;99.90
6142;DHT22;71289;51.552;6.210;2024-01-16T14:27:42;3.20;99.90
6142;DHT22;71289;51.552;6.210;2024-01-16T14:30:10;3.20;99.90
6142;DHT22;71289;51.552;6.210;2024-01-16T14:32:43;3.20;99.90
6142;DHT22;71289;51.552;6.210;2024-01-16T14:35:12;3.10;99.90
6142;DHT22;71289;51.552;6.210;2024-01-16T14:37:38;3.10;99.90
6142;DHT22;71289;51.552;6.210;2024-01-16T14:40:05;3.00;99.90
6142;DHT22;71289;51.552;6.210;2024-01-16T14:42:41;3.00;99.90
6142;DHT22;71289;51.552;6.210;2024-01-16T14:45:08;2.90;99.90
6142;DHT22;71289;51.552;6.210;2024-01-16T14:47:34;2.90;99.90
6142;DHT22;71289;51.552;6.210;2024-01-16T14:50:00;3.00;99.90
6142;DHT22;71289;51.552;6.210;2024-01-16T14:52:25;3.00;99.90
6142;DHT22;71289;51.552;6.210;2024-01-16T14:54:51;3.10;99.90
6142;DHT22;71289;51.552;6.210;2024-01-16T14:57:18;3.10;99.90
6142;DHT22;71289;51.552;6.210;2024-01-16T14:59:43;3.10;99.90
6142;DHT22;71289;51.552;6.210;2024-01-16T15:02:10;3.20;99.90
6142;DHT22;71289;51.552;6.210;2024-01-16T15:04:42;3.30;99.90
6142;DHT22;71289;51.552;6.210;2024-01-16T15:07:09;3.30;99.90
6142;DHT22;71289;51.552;6.210;2024-01-16T15:09:34;3.40;99.90
6142;DHT22;71289;51.552;6.210;2024-01-16T15:12:04;3.40;99.90
6142;DHT22;71289;51.552;6.210;2024-01-16T15:14:29;3.40;99.90
6142;DHT22;71289;51.552;6.210;2024-01-16T15:16:55;3.40;99.90
6142;DHT22;71289;51.552;6.210;2024-01-16T15:19:21;3.40;99.90
6142;DHT22;71289;51.552;6.210;2024-01-16T15:21:46;3.40;99.90
6142;DHT22;71289;51.552;6.210;2024-01-16T15:24:13;3.40;99.90
6142;DHT22;71289;51.552;6.210;2024-01-16T15:26:44;3.30;99.90
6142;DHT22;71289;51.552;6.210;2024-01-16T15:29:10;3.30;99.90
6142;DHT22;71289;51.552;6.210;2024-01-16T15:31:37;3.20;99.90
6142;DHT22;71289;51.552;6.210;2024-01-16T15:34:03;3.20;99.90
6142;DHT22;71289;51.552;6.210;2024-01-16T15:36:28;3.10;99.90
6142;DHT22;71289;51.552;6.210;2024-01-16T15:38:54;3.00;99.90
6142;DHT22;71289;51.552;6.210;2024-01-16T15:41:19;2.80;99.90
6142;DHT22;71289;51.552;6.210;2024-01-16T15:43:45;2.70;99.90
6142;DHT22;71289;51.552;6.210;2024-01-16T15:46:11;2.60;99.90
6142;DHT22;71289;51.552;6.210;2024-01-16T15:48:37;2.40;99.90
6142;DHT22;71289;51.552;6.210;2024-01-16T15:51:03;2.20;99.90
6142;DHT22;71289;51.552;6.210;2024-01-16T15:53:33;2.10;99.90
6142;DHT22;71289;51.552;6.210;2024-01-16T15:55:58;2.00;99.90
6142;DHT22;71289;51.552;6.210;2024-01-16T15:58:24;1.80;99.90
6142;DHT22;71289;51.552;6.210;2024-01-16T16:00:49;1.70;99.90
6142;DHT22;71289;51.552;6.210;2024-01-16T16:03:15;1.60;99.90
6142;DHT22;71289;51.552;6.210;2024-01-16T16:05:40;1.50;99.90
6142;DHT22;71289;51.552;6.210;2024-01-16T16:08:06;1.40;99.90
6142;DHT22;71289;51.552;6.210;2024-01-16T16:10:32;1.30;99.90